Time;durP1;ratioP1;P1;durP2;ratioP2;P2;SDS_P1;SDS_P2;PMS_P1;PMS_P2;Temp;Humidity;BMP_temperature;BMP_pressure;BME280_temperature;BME280_humidity;BME280_pressure;Samples;Min_cycle;Max_cycle;Signal;HPM_P1;HPM_P2
2022/01/22 00:00:12;;;;;;;11.15;4.18;;;;;;;4.17;98.31;103382.16;5095290;28;20512;-36
2022/01/22 00:02:38;;;;;;;12.05;4.22;;;;;;;4.18;98.02;103388.34;5095238;28;20024;-36
2022/01/22 00:05:06;;;;;;;14.65;4.57;;;;;;;4.22;98.10;103390.66;5095313;28;20426;-36
2022/01/22 00:07:32;;;;;;;9.85;4.85;;;;;;;4.22;98.29;103384.44;5094174;28;20387;-36
2022/01/22 00:10:05;;;;;;;12.47;3.83;;;;;;;4.24;98.65;103387.84;5094408;28;20035;-36
2022/01/22 00:15:06;;;;;;;10.38;4.00;;;;;;;4.26;98.62;103381.41;5094640;28;20483;-36
2022/01/22 00:17:32;;;;;;;13.13;4.78;;;;;;;4.24;98.53;103377.97;5094501;28;20035;-36
2022/01/22 00:19:57;;;;;;;12.00;4.03;;;;;;;4.28;98.04;103384.78;5094247;28;20032;-37
2022/01/22 00:22:27;;;;;;;10.40;4.00;;;;;;;4.29;98.26;103380.28;5094121;28;20089;-36
2022/01/22 00:24:58;;;;;;;13.73;4.13;;;;;;;4.28;97.96;103379.44;5094660;28;20445;-36
2022/01/22 00:27:25;;;;;;;18.33;5.22;;;;;;;4.29;98.28;103375.75;5094588;28;20089;-36
2022/01/22 00:29:50;;;;;;;11.10;4.00;;;;;;;4.28;98.17;103376.75;5094361;28;20111;-37
2022/01/22 00:32:16;;;;;;;10.90;4.32;;;;;;;4.23;97.80;103357.53;5095117;28;20130;-37
2022/01/22 00:34:41;;;;;;;11.57;4.33;;;;;;;4.34;97.92;103378.94;5094331;28;20515;-36
2022/01/22 00:37:07;;;;;;;13.30;5.10;;;;;;;4.35;97.60;103375.28;5093863;28;20034;-36
2022/01/22 00:39:34;;;;;;;12.05;5.32;;;;;;;4.35;97.28;103369.91;5094870;28;20418;-36
2022/01/22 00:41:59;;;;;;;12.68;5.38;;;;;;;4.36;97.99;103366.25;5093685;28;20020;-36
2022/01/22 00:44:25;;;;;;;15.87;5.57;;;;;;;4.33;97.81;103368.31;5094464;28;20028;-36
2022/01/22 00:46:51;;;;;;;13.57;4.60;;;;;;;4.28;97.84;103357.16;5093549;28;20027;-36
2022/01/22 00:49:17;;;;;;;9.57;5.30;;;;;;;4.33;98.03;103361.13;5094182;28;20024;-36
2022/01/22 00:51:42;;;;;;;11.77;5.65;;;;;;;4.36;97.34;103371.59;5093651;28;20380;-36
2022/01/22 00:54:08;;;;;;;10.47;4.70;;;;;;;4.33;97.85;103366.50;5094403;28;20115;-37
2022/01/22 00:56:33;;;;;;;15.67;6.53;;;;;;;4.35;97.68;103369.06;5093615;28;20123;-36
2022/01/22 00:58:59;;;;;;;9.70;5.43;;;;;;;4.27;98.22;103353.63;5092249;28;20036;-36
2022/01/22 01:01:24;;;;;;;15.00;6.10;;;;;;;4.35;97.85;103377.94;5093331;28;20118;-37
2022/01/22 01:03:49;;;;;;;12.77;5.90;;;;;;;4.36;97.83;103386.84;5091865;28;20044;-37
2022/01/22 01:06:15;;;;;;;13.57;5.83;;;;;;;4.28;97.58;103374.06;5093347;28;20020;-37
2022/01/22 01:08:42;;;;;;;6.80;4.97;;;;;;;4.36;97.61;103386.84;5094094;28;20058;-37
2022/01/22 01:11:09;;;;;;;10.90;5.63;;;;;;;4.28;97.73;103373.22;5093774;28;20345;-37
2022/01/22 01:13:41;;;;;;;14.45;6.35;;;;;;;4.35;97.70;103379.78;5093536;28;20388;-36
2022/01/22 01:16:43;;;;;;;10.65;5.88;;;;;;;4.32;98.18;103372.84;5093459;28;20039;-37
2022/01/22 01:33:05;;;;;;;10.82;5.85;;;;;;;4.30;98.72;103371.28;5093475;28;20162;-37
2022/01/22 01:35:32;;;;;;;9.30;6.32;;;;;;;4.30;99.05;103366.78;5093396;28;20074;-37
2022/01/22 01:38:00;;;;;;;15.20;6.38;;;;;;;4.34;99.15;103384.28;5092753;28;20032;-37
2022/01/22 01:40:28;;;;;;;12.63;5.32;;;;;;;4.30;99.38;103376.63;5093192;28;20024;-36
2022/01/22 01:43:22;;;;;;;14.18;5.88;;;;;;;4.25;98.85;103368.13;5092558;28;20032;-36
2022/01/22 01:45:39;;;;;;;13.48;6.55;;;;;;;4.33;98.79;103392.44;5091830;28;20058;-36
2022/01/22 01:48:10;;;;;;;12.77;5.78;;;;;;;4.31;99.61;103391.72;5092926;28;20464;-36
2022/01/22 01:50:38;;;;;;;16.42;5.95;;;;;;;4.30;99.54;103396.25;5093621;28;20040;-36
2022/01/22 01:53:28;;;;;;;13.52;6.63;;;;;;;4.22;99.88;103374.59;5093077;28;20050;-36
2022/01/22 01:58:23;;;;;;;14.45;6.63;;;;;;;4.30;100.00;103387.34;5092838;28;20040;-36
2022/01/22 02:00:48;;;;;;;13.52;6.90;;;;;;;4.20;100.00;103365.84;5092835;28;20043;-36
2022/01/22 02:03:14;;;;;;;13.98;7.28;;;;;;;4.28;100.00;103368.72;5093175;28;20024;-36
2022/01/22 02:05:39;;;;;;;10.45;6.75;;;;;;;4.29;100.00;103380.28;5092460;28;20028;-37
2022/01/22 02:08:06;;;;;;;17.03;7.20;;;;;;;4.27;100.00;103376.88;5093067;28;20039;-37
2022/01/22 02:10:35;;;;;;;16.02;7.05;;;;;;;4.22;100.00;103369.22;5093157;28;20086;-37
2022/01/22 02:23:59;;;;;;;14.68;7.53;;;;;;;4.08;100.00;103350.78;5092729;28;20040;-36
2022/01/22 02:26:24;;;;;;;12.88;7.72;;;;;;;4.25;100.00;103378.84;5092578;28;20023;-36
2022/01/22 02:28:52;;;;;;;14.17;8.17;;;;;;;4.25;100.00;103374.34;5092558;28;20078;-35
2022/01/22 02:36:58;;;;;;;17.15;9.13;;;;;;;4.27;100.00;103376.88;5029834;28;20104;-36
2022/01/22 02:39:36;;;;;;;15.90;8.68;;;;;;;4.25;100.00;103374.34;5030400;28;20065;-35
2022/01/22 02:42:02;;;;;;;17.58;9.80;;;;;;;4.16;100.00;103353.69;5030089;28;20391;-36
2022/01/22 02:44:35;;;;;;;16.60;10.75;;;;;;;4.18;100.00;103366.94;5030362;28;20041;-36
2022/01/22 02:47:03;;;;;;;21.83;11.07;;;;;;;3.99;100.00;103325.59;5030309;28;20071;-36
2022/01/22 02:49:29;;;;;;;20.20;11.10;;;;;;;4.25;100.00;103365.47;5029806;28;20083;-36
2022/01/22 02:51:59;;;;;;;18.57;10.67;;;;;;;4.25;100.00;103376.19;5029754;28;20034;-36
2022/01/22 02:54:24;;;;;;;17.33;12.43;;;;;;;4.23;100.00;103364.72;5030057;28;20501;-37
2022/01/22 02:56:49;;;;;;;17.67;11.03;;;;;;;4.28;100.00;103368.72;5031415;28;20037;-37
2022/01/22 02:59:21;;;;;;;18.80;11.37;;;;;;;4.25;100.00;103366.31;5033428;28;20133;-36
2022/01/22 03:01:46;;;;;;;17.23;11.18;;;;;;;4.27;100.00;103377.72;5033715;28;20107;-36
2022/01/22 03:04:11;;;;;;;19.37;12.37;;;;;;;4.18;100.00;103367.78;5033299;28;20025;-37
2022/01/22 03:06:36;;;;;;;19.70;12.20;;;;;;;4.21;100.00;103377.41;5033473;28;20075;-36
2022/01/22 03:09:03;;;;;;;18.33;12.00;;;;;;;4.29;100.00;103390.97;5033484;28;20033;-37
2022/01/22 03:11:31;;;;;;;16.40;12.07;;;;;;;4.28;100.00;103382.09;5033208;28;20162;-36
2022/01/22 03:29:19;;;;;;;18.92;14.30;;;;;;;4.30;100.00;103379.31;5095955;28;20038;-37
2022/01/22 03:31:45;;;;;;;21.67;14.85;;;;;;;4.30;100.00;103382.84;5095843;28;20054;-37
2022/01/22 03:34:11;;;;;;;22.52;15.70;;;;;;;4.29;100.00;103383.78;5095789;28;20372;-37
2022/01/22 03:36:37;;;;;;;24.00;15.75;;;;;;;4.32;100.00;103386.22;5095134;28;20028;-36
2022/01/22 03:39:06;;;;;;;22.17;15.35;;;;;;;4.29;100.00;103381.13;5095549;28;20077;-36
2022/01/22 03:41:31;;;;;;;24.80;16.10;;;;;;;4.30;100.00;103382.84;5095380;28;20028;-36
2022/01/22 03:43:57;;;;;;;24.77;15.80;;;;;;;4.30;100.00;103382.00;5095909;28;20065;-36
2022/01/22 03:46:22;;;;;;;19.45;15.35;;;;;;;4.19;100.00;103368.63;5095624;28;20427;-36
2022/01/22 03:48:48;;;;;;;29.57;17.17;;;;;;;4.33;100.00;103385.25;5095080;28;20039;-36
2022/01/22 03:51:13;;;;;;;25.43;17.17;;;;;;;4.32;100.00;103383.56;5095273;28;20107;-36
2022/01/22 03:53:39;;;;;;;31.20;16.73;;;;;;;4.32;100.00;103388.91;5094965;28;20024;-36
2022/01/22 03:56:06;;;;;;;23.90;16.43;;;;;;;4.25;100.00;103370.81;5095377;28;20028;-36
2022/01/22 03:58:35;;;;;;;22.17;16.17;;;;;;;4.33;100.00;103389.75;5094584;28;20333;-36
2022/01/22 04:03:39;;;;;;;21.67;16.70;;;;;;;4.25;100.00;103374.34;5094923;28;20495;-37
2022/01/22 04:08:30;;;;;;;30.53;17.73;;;;;;;4.38;100.00;103385.72;5094164;28;20036;-36
2022/01/22 04:10:56;;;;;;;23.17;17.27;;;;;;;4.37;100.00;103384.03;5094491;28;20028;-36
2022/01/22 04:13:28;;;;;;;26.60;18.13;;;;;;;4.39;100.00;103389.25;5094671;28;20043;-36
2022/01/22 04:15:54;;;;;;;28.52;18.05;;;;;;;4.37;100.00;103384.03;5095100;28;20032;-37
2022/01/22 04:27:09;;;;;;;29.67;20.02;;;;;;;4.39;100.00;103387.44;5094856;28;20035;-36
2022/01/22 04:29:24;;;;;;;27.80;18.98;;;;;;;4.31;100.00;103363.09;5091930;28;20036;-36
2022/01/22 04:31:50;;;;;;;28.85;19.50;;;;;;;4.41;100.00;103381.94;5094677;28;20097;-37
2022/01/22 04:34:16;;;;;;;32.57;20.20;;;;;;;4.42;100.00;103385.47;5094902;28;20449;-36
2022/01/22 04:36:42;;;;;;;32.88;19.40;;;;;;;4.33;100.00;103371.84;5094781;28;20032;-36
2022/01/22 04:39:08;;;;;;;32.30;20.42;;;;;;;4.44;100.00;103388.84;5094273;28;20396;-36
2022/01/22 04:41:33;;;;;;;28.05;19.38;;;;;;;4.46;100.00;103392.28;5093983;28;20031;-36
2022/01/22 04:44:02;;;;;;;28.25;19.98;;;;;;;4.36;100.00;103379.66;5094686;28;20036;-36
2022/01/22 04:49:12;;;;;;;31.73;20.67;;;;;;;4.41;100.00;103379.25;5094422;28;20032;-36
2022/01/22 04:57:06;;;;;;;29.02;21.15;;;;;;;4.48;100.00;103385.78;5093742;28;20051;-37
2022/01/22 04:59:31;;;;;;;32.33;21.77;;;;;;;4.41;100.00;103376.59;5093916;28;20029;-37
2022/01/22 05:01:57;;;;;;;32.57;20.23;;;;;;;4.53;100.00;103388.94;5093606;28;20042;-37
2022/01/22 05:04:22;;;;;;;27.00;20.45;;;;;;;4.52;100.00;103389.06;5093785;28;20035;-37
2022/01/22 05:06:47;;;;;;;36.80;22.67;;;;;;;4.30;100.00;103355.22;5093619;28;20042;-37
2022/01/22 05:09:13;;;;;;;35.60;21.70;;;;;;;4.34;100.00;103362.88;5094226;28;20437;-37
2022/01/22 05:11:38;;;;;;;30.60;20.57;;;;;;;4.52;100.00;103383.72;5093780;28;20353;-36
2022/01/22 05:14:04;;;;;;;35.40;21.60;;;;;;;4.50;100.00;103378.50;5093244;28;20035;-37
2022/01/22 05:16:29;;;;;;;33.60;21.80;;;;;;;4.51;100.00;103377.50;5093365;28;20486;-36
2022/01/22 05:19:00;;;;;;;30.20;21.33;;;;;;;4.54;100.00;103376.38;5094038;28;20126;-36
2022/01/22 05:21:27;;;;;;;32.97;21.23;;;;;;;4.48;100.00;103355.47;5093127;28;20112;-36
2022/01/22 05:23:56;;;;;;;33.22;21.77;;;;;;;4.53;100.00;103374.69;5093934;28;20039;-36
2022/01/22 05:32:25;;;;;;;30.42;20.83;;;;;;;4.52;100.00;103370.31;5031015;28;20405;-36
2022/01/22 05:37:24;;;;;;;30.45;20.67;;;;;;;4.53;100.00;103372.00;5031385;28;20060;-36
2022/01/22 05:39:49;;;;;;;31.33;20.77;;;;;;;4.51;100.00;103369.47;5031377;28;20470;-36
2022/01/22 05:42:15;;;;;;;31.63;21.43;;;;;;;4.55;100.00;103370.06;5030449;28;20029;-36
2022/01/22 05:44:41;;;;;;;34.10;22.97;;;;;;;4.54;100.00;103379.06;5030423;28;20033;-36
2022/01/22 05:47:07;;;;;;;38.30;21.75;;;;;;;4.53;100.00;103372.00;5030444;28;20276;-36
2022/01/22 05:49:37;;;;;;;32.15;20.98;;;;;;;4.48;100.00;103363.50;5030346;28;20029;-36
2022/01/22 05:52:05;;;;;;;31.60;20.65;;;;;;;4.56;100.00;103385.16;5030800;28;20033;-36
2022/01/22 05:54:57;;;;;;;35.67;22.40;;;;;;;4.57;100.00;103384.19;5030554;28;20050;-36
2022/01/22 06:00:07;;;;;;;36.83;21.55;;;;;;;4.59;100.00;103379.56;5030746;28;20044;-36
2022/01/22 06:02:32;;;;;;;;;;;;;;;4.63;100.00;103389.84;5030619;28;20457;-36
2022/01/22 06:04:58;;;;;;;26.80;19.63;;;;;;;4.59;100.00;103392.97;5030904;28;20016;-36
2022/01/22 06:07:23;;;;;;;32.33;21.20;;;;;;;4.52;100.00;103375.69;5092584;28;20262;-36
2022/01/22 06:10:03;;;;;;;28.53;21.10;;;;;;;4.62;100.00;103385.47;5092928;28;20023;-36
2022/01/22 06:14:54;;;;;;;31.33;21.63;;;;;;;4.64;100.00;103385.38;5093078;28;20048;-36
2022/01/22 06:17:19;;;;;;;34.33;21.27;;;;;;;4.64;100.00;103388.91;5092680;28;20174;-36
2022/01/22 06:19:45;;;;;;;26.63;20.03;;;;;;;4.65;100.00;103387.91;5092867;28;20032;-36
2022/01/22 06:22:10;;;;;;;35.50;21.57;;;;;;;4.62;100.00;103385.47;5092669;28;20051;-36
2022/01/22 06:24:35;;;;;;;35.67;21.50;;;;;;;4.64;100.00;103385.38;5092843;28;20031;-35
2022/01/22 06:27:01;;;;;;;31.13;21.17;;;;;;;4.62;100.00;103385.47;5092461;28;20107;-36
2022/01/22 06:29:26;;;;;;;31.73;20.57;;;;;;;4.63;100.00;103378.28;5093319;28;20054;-35
2022/01/22 06:31:51;;;;;;;33.43;21.40;;;;;;;4.56;100.00;103380.66;5095185;28;20044;-36
2022/01/22 06:34:17;;;;;;;38.13;21.60;;;;;;;4.63;100.00;103392.53;5096863;28;20116;-36
2022/01/22 06:36:42;;;;;;;32.60;20.67;;;;;;;4.64;100.00;103393.41;5096447;28;20101;-36
2022/01/22 06:39:13;;;;;;;32.47;20.63;;;;;;;4.64;100.00;103396.09;5096561;28;20521;-36
2022/01/22 06:41:45;;;;;;;28.33;19.42;;;;;;;4.64;100.00;103402.31;5096799;28;20031;-36
2022/01/22 06:44:13;;;;;;;33.20;19.52;;;;;;;4.67;100.00;103406.53;5096402;28;20035;-36
2022/01/22 06:46:39;;;;;;;28.80;19.30;;;;;;;4.46;100.00;103370.84;5096352;28;20062;-36
2022/01/22 06:49:04;;;;;;;33.33;19.60;;;;;;;4.60;100.00;103386.59;5095932;28;20032;-36
2022/01/22 06:51:30;;;;;;;33.83;19.80;;;;;;;4.68;100.00;103402.88;5096859;28;20024;-36
2022/01/22 06:53:55;;;;;;;25.07;17.47;;;;;;;4.71;100.00;103408.00;5096758;28;20055;-36
2022/01/22 06:56:22;;;;;;;26.48;17.15;;;;;;;4.71;100.00;103408.00;5095898;28;20039;-36
2022/01/22 06:58:48;;;;;;;28.10;16.73;;;;;;;4.72;100.00;103408.84;5094946;28;20046;-36
2022/01/22 07:01:14;;;;;;;;;;;;;;;4.77;100.00;103407.47;5096557;28;20509;-36
2022/01/22 07:03:39;;;;;;;25.70;15.05;;;;;;;4.74;100.00;103412.25;5096350;28;19927;-36
2022/01/22 07:06:05;;;;;;;24.13;15.70;;;;;;;4.78;100.00;103419.03;5096308;28;20024;-36
2022/01/22 07:08:30;;;;;;;27.83;15.93;;;;;;;4.72;100.00;103404.31;5095911;28;20730;-36
2022/01/22 07:10:55;;;;;;;32.57;15.97;;;;;;;4.80;100.00;103417.94;5095756;28;20028;-36
2022/01/22 07:13:21;;;;;;;23.53;15.23;;;;;;;4.73;100.00;103397.13;5095594;28;20073;-36
2022/01/22 07:15:46;;;;;;;31.17;16.20;;;;;;;4.75;100.00;103406.75;5095358;28;20118;-36
2022/01/22 07:18:13;;;;;;;23.77;15.03;;;;;;;4.83;100.00;103428.41;5095186;28;20031;-36
2022/01/22 07:20:40;;;;;;;28.27;15.77;;;;;;;4.81;100.00;103430.34;5095242;28;20031;-36
2022/01/22 07:24:23;;;;;;;25.60;16.10;;;;;;;4.84;100.00;103435.47;5095144;28;20024;-36
2022/01/22 07:26:06;;;;;;;26.00;15.25;;;;;;;4.85;100.00;103439.84;5078189;28;20051;-36
2022/01/22 07:28:32;;;;;;;26.00;14.77;;;;;;;4.87;100.00;103445.91;5095501;28;20341;-36
2022/01/22 07:30:59;;;;;;;23.83;15.13;;;;;;;4.86;100.00;103444.22;5093672;28;20058;-36
2022/01/22 07:33:25;;;;;;;24.42;14.73;;;;;;;4.78;100.00;103430.63;5095606;28;20371;-36
2022/01/22 07:35:52;;;;;;;24.98;15.15;;;;;;;4.87;100.00;103445.91;5095241;28;20127;-36
2022/01/22 07:38:17;;;;;;;25.48;15.68;;;;;;;4.88;100.00;103444.06;5095906;28;20057;-36
2022/01/22 07:40:43;;;;;;;26.37;15.43;;;;;;;4.86;100.00;103441.53;5095218;28;20028;-36
2022/01/22 07:43:08;;;;;;;28.03;14.97;;;;;;;4.91;100.00;103451.88;5094345;28;20032;-36
2022/01/22 07:45:34;;;;;;;26.37;14.10;;;;;;;4.94;100.00;103456.97;5095259;28;20472;-36
2022/01/22 07:47:59;;;;;;;24.47;14.50;;;;;;;4.87;100.00;103445.91;5094764;28;20382;-36
2022/01/22 07:50:24;;;;;;;24.10;14.97;;;;;;;4.98;100.00;103463.78;5095007;28;20265;-36
2022/01/22 07:52:50;;;;;;;20.40;13.37;;;;;;;5.00;100.00;103459.13;5094927;28;20052;-36
2022/01/22 07:55:20;;;;;;;25.67;14.57;;;;;;;4.98;100.00;103461.13;5094985;28;20032;-36
2022/01/22 07:57:46;;;;;;;25.30;14.05;;;;;;;4.89;100.00;103446.66;5095073;28;20456;-35
2022/01/22 08:00:12;;;;;;;18.23;13.52;;;;;;;4.99;100.00;103453.91;5094853;28;20067;-36
2022/01/22 08:02:38;;;;;;;23.58;13.30;;;;;;;5.00;100.00;103447.56;5094425;28;20032;-36
2022/01/22 08:05:04;;;;;;;24.73;14.02;;;;;;;5.03;100.00;103456.22;5094614;28;20035;-36
2022/01/22 08:07:29;;;;;;;22.80;14.25;;;;;;;5.06;100.00;103455.06;5094641;28;20043;-36
2022/01/22 08:09:55;;;;;;;23.50;14.97;;;;;;;5.05;100.00;103448.03;5094612;28;20028;-36
2022/01/22 08:12:20;;;;;;;23.48;13.85;;;;;;;5.10;100.00;103448.47;5094738;28;20270;-36
2022/01/22 08:14:46;;;;;;;23.70;14.33;;;;;;;5.07;100.00;103444.22;5094802;28;20055;-36
2022/01/22 08:17:11;;;;;;;21.70;13.73;;;;;;;5.08;100.00;103434.34;5094012;28;20023;-36
2022/01/22 08:19:37;;;;;;;25.57;15.70;;;;;;;5.03;100.00;103431.22;5094592;28;20070;-36
2022/01/22 08:22:03;;;;;;;27.60;15.68;;;;;;;5.12;100.00;103446.50;5094314;28;20024;-36
2022/01/22 08:24:28;;;;;;;24.58;14.55;;;;;;;5.06;100.00;103433.63;5095022;28;20027;-36
2022/01/22 08:29:49;;;;;;;20.92;13.43;;;;;;;5.09;100.00;103433.38;5032249;28;20025;-36
2022/01/22 08:32:34;;;;;;;23.90;14.27;;;;;;;5.15;100.00;103447.09;5031481;28;20054;-36
2022/01/22 08:37:44;;;;;;;24.25;13.50;;;;;;;5.18;100.00;103443.31;5032476;28;20041;-36
2022/01/22 08:40:10;;;;;;;21.55;13.60;;;;;;;5.18;100.00;103440.63;5031623;28;20406;-36
2022/01/22 08:42:36;;;;;;;19.98;12.82;;;;;;;5.16;100.00;103435.38;5031463;28;20030;-36
2022/01/22 08:45:04;;;;;;;22.70;13.43;;;;;;;5.19;100.00;103438.78;5031926;28;20112;-36
2022/01/22 08:47:29;;;;;;;21.00;11.25;;;;;;;5.23;100.00;103442.91;5032050;28;20059;-36
2022/01/22 08:49:54;;;;;;;22.43;11.50;;;;;;;5.24;100.00;103441.94;5031884;28;20033;-36
2022/01/22 08:52:24;;;;;;;19.27;11.50;;;;;;;5.25;100.00;103449.00;5031762;28;20192;-36
2022/01/22 08:54:50;;;;;;;16.48;10.65;;;;;;;5.26;100.00;103445.31;5030863;28;20489;-36
2022/01/22 08:57:15;;;;;;;23.13;10.93;;;;;;;5.29;100.00;103453.97;5031219;28;20120;-36
2022/01/22 08:59:42;;;;;;;17.40;10.07;;;;;;;5.31;100.00;103454.66;5031863;28;20037;-36
2022/01/22 09:02:07;;;;;;;24.55;10.38;;;;;;;5.32;100.00;103464.44;5031138;28;20427;-36
2022/01/22 09:04:33;;;;;;;26.02;9.55;;;;;;;5.28;100.00;103446.91;5031318;28;20063;-36
2022/01/22 09:06:59;;;;;;;20.10;10.65;;;;;;;5.36;100.00;103465.84;5082875;28;20067;-36
2022/01/22 09:09:25;;;;;;;16.83;8.85;;;;;;;5.38;100.00;103466.59;5093751;28;20100;-36
2022/01/22 09:11:51;;;;;;;;;;;;;;;5.47;100.00;103480.19;5093807;28;20106;-36
2022/01/22 09:14:17;;;;;;;18.47;9.20;;;;;;;5.36;100.00;103463.16;5093674;28;19965;-36
2022/01/22 09:16:45;;;;;;;18.70;8.45;;;;;;;5.44;100.00;103475.94;5093096;28;20066;-36
2022/01/22 09:19:12;;;;;;;20.98;9.43;;;;;;;5.47;100.00;103481.03;5093834;28;20028;-36
2022/01/22 09:21:41;;;;;;;21.15;8.52;;;;;;;5.47;100.00;103482.88;5093666;28;20411;-36
2022/01/22 09:24:07;;;;;;;16.27;7.72;;;;;;;5.48;100.00;103471.16;5093327;28;20333;-36
2022/01/22 09:26:32;;;;;;;15.20;8.13;;;;;;;5.50;100.00;103470.03;5093404;28;20035;-36
2022/01/22 09:29:00;;;;;;;18.10;8.57;;;;;;;5.52;100.00;103470.75;5093049;28;20032;-36
2022/01/22 09:31:26;;;;;;;20.83;9.18;;;;;;;5.48;100.00;103465.78;5093381;28;20051;-36
2022/01/22 09:33:55;;;;;;;22.42;9.55;;;;;;;5.59;100.00;103479.13;5092894;28;20028;-36
2022/01/22 09:36:20;;;;;;;18.38;9.63;;;;;;;5.54;100.00;103475.97;5092931;28;20529;-36
2022/01/22 09:38:46;;;;;;;18.83;8.70;;;;;;;5.61;100.00;103488.75;5093909;28;20111;-36
2022/01/22 09:41:14;;;;;;;15.97;8.20;;;;;;;5.57;100.00;103483.78;5093355;28;20254;-36
2022/01/22 09:43:39;;;;;;;15.30;8.27;;;;;;;5.64;100.00;103504.56;5093117;28;20318;-36
2022/01/22 09:46:07;;;;;;;15.27;8.73;;;;;;;5.57;100.00;103494.50;5093053;28;20028;-36
2022/01/22 09:48:32;;;;;;;17.13;8.63;;;;;;;5.68;100.00;103507.84;5093079;28;20138;-36
2022/01/22 09:50:58;;;;;;;15.57;9.43;;;;;;;5.68;100.00;103510.53;5092197;28;20111;-36
2022/01/22 09:53:23;;;;;;;15.60;10.83;;;;;;;5.71;100.00;103504.91;5093049;28;20053;-36
2022/01/22 09:55:50;;;;;;;17.23;9.73;;;;;;;5.71;100.00;103504.91;5093242;28;20718;-36
2022/01/22 09:58:16;;;;;;;16.27;10.30;;;;;;;5.72;100.00;103501.22;5092612;28;20488;-36
2022/01/22 10:00:41;;;;;;;16.83;9.80;;;;;;;5.71;100.00;103507.59;5093546;28;20024;-36
2022/01/22 10:03:15;;;;;;;19.13;9.60;;;;;;;5.68;100.00;103497.97;5092964;28;20525;-36
2022/01/22 10:05:40;;;;;;;19.30;9.35;;;;;;;5.75;100.00;103508.16;5092416;28;20118;-36
2022/01/22 10:08:31;;;;;;;16.90;9.77;;;;;;;5.81;100.00;103513.00;5096870;28;20528;-36
2022/01/22 10:10:59;;;;;;;17.70;9.35;;;;;;;5.71;100.00;103499.53;5097601;28;20111;-36
2022/01/22 10:14:03;;;;;;;21.15;10.18;;;;;;;5.82;100.00;103507.50;5097259;28;20052;-36
2022/01/22 10:16:37;;;;;;;17.25;10.30;;;;;;;5.73;100.00;103494.03;5014897;28;20040;-36
2022/01/22 10:19:17;;;;;;;23.55;10.95;;;;;;;5.80;100.00;103522.88;5014563;28;20038;-36
2022/01/22 10:21:46;;;;;;;19.70;11.30;;;;;;;5.74;100.00;103509.16;5015221;28;20046;-37
2022/01/22 10:24:44;;;;;;;22.73;12.35;;;;;;;5.82;100.00;103515.56;5014430;28;20037;-37
2022/01/22 10:29:54;;;;;;;21.83;12.82;;;;;;;5.79;100.00;103523.00;4956622;29;20043;-36
2022/01/22 10:32:35;;;;;;;24.30;13.75;;;;;;;5.80;100.00;103508.59;4955751;29;20043;-36
2022/01/22 10:35:07;;;;;;;21.95;13.43;;;;;;;5.79;100.00;103507.75;4956012;29;20149;-36
2022/01/22 10:37:33;;;;;;;23.73;13.80;;;;;;;5.79;100.00;103510.44;4956347;29;20051;-36
2022/01/22 10:40:17;;;;;;;20.13;12.88;;;;;;;5.83;100.00;103514.56;4956056;29;20047;-36
2022/01/22 10:42:42;;;;;;;21.35;13.38;;;;;;;5.63;100.00;103485.91;4955783;29;20097;-36
2022/01/22 10:45:12;;;;;;;25.73;13.00;;;;;;;5.77;100.00;103504.38;4939861;29;20519;-36
2022/01/22 10:47:37;;;;;;;25.35;13.48;;;;;;;5.75;100.00;103500.94;5007703;28;20041;-36
2022/01/22 10:50:20;;;;;;;20.40;13.97;;;;;;;5.83;100.00;103525.28;5034489;28;20056;-36
2022/01/22 10:52:50;;;;;;;19.27;12.85;;;;;;;5.83;100.00;103530.66;5034125;28;20359;-36
2022/01/22 10:55:16;;;;;;;22.27;12.88;;;;;;;5.80;100.00;103520.19;5034206;28;20159;-36
2022/01/22 10:58:06;;;;;;;21.60;12.23;;;;;;;5.85;100.00;103522.47;5033662;28;20394;-36
2022/01/22 11:00:32;;;;;;;21.65;12.27;;;;;;;5.80;100.00;103516.66;5033558;28;20338;-36
2022/01/22 11:02:57;;;;;;;21.17;12.57;;;;;;;5.84;100.00;103524.31;5050819;28;20067;-36
2022/01/22 11:05:37;;;;;;;18.93;11.63;;;;;;;5.85;100.00;103527.84;5096001;28;20028;-36
2022/01/22 11:08:12;;;;;;;19.25;12.50;;;;;;;5.76;100.00;103513.41;5095968;28;20491;-36
2022/01/22 11:10:38;;;;;;;18.77;12.98;;;;;;;5.87;100.00;103521.38;5095661;28;20107;-36
2022/01/22 11:13:04;;;;;;;25.25;12.95;;;;;;;5.86;100.00;103521.50;5095690;28;20028;-36
2022/01/22 11:15:30;;;;;;;21.47;12.90;;;;;;;5.87;100.00;103513.31;5096457;28;20074;-36
2022/01/22 11:17:56;;;;;;;22.33;12.52;;;;;;;5.87;100.00;103509.78;5095976;28;20388;-36
2022/01/22 11:20:24;;;;;;;;;;;;;;;5.96;100.00;103505.47;5096285;28;20027;-36
2022/01/22 11:22:52;;;;;;;22.02;12.23;;;;;;;5.92;100.00;103496.81;5095670;28;19951;-36
2022/01/22 11:25:19;;;;;;;22.27;13.75;;;;;;;5.85;100.00;103488.41;5096659;28;20436;-36
2022/01/22 11:27:46;;;;;;;20.38;12.75;;;;;;;5.85;100.00;103484.88;5095586;28;20111;-36
2022/01/22 11:30:16;;;;;;;20.52;13.85;;;;;;;5.92;100.00;103503.03;5096127;28;20028;-36
2022/01/22 11:33:03;;;;;;;25.02;13.63;;;;;;;5.92;100.00;103511.09;5096088;28;20047;-36
2022/01/22 11:36:04;;;;;;;20.02;12.88;;;;;;;5.92;100.00;103502.19;5095206;28;20135;-36
2022/01/22 11:38:35;;;;;;;18.77;13.52;;;;;;;5.90;100.00;103496.94;5095849;28;20048;-36
2022/01/22 11:41:20;;;;;;;16.90;13.50;;;;;;;5.86;100.00;103483.91;5095074;28;20024;-36
2022/01/22 11:44:10;;;;;;;22.23;14.07;;;;;;;5.94;100.00;103498.38;5095106;28;20384;-36
2022/01/22 11:46:42;;;;;;;23.45;13.70;;;;;;;5.94;100.00;103505.59;5095738;28;20062;-36
2022/01/22 11:49:14;;;;;;;23.83;13.95;;;;;;;5.95;100.00;103501.91;5094859;28;20028;-36
2022/01/22 11:51:41;;;;;;;24.95;13.88;;;;;;;5.99;100.00;103508.72;5095394;28;20020;-36
2022/01/22 11:54:07;;;;;;;27.08;14.30;;;;;;;5.97;100.00;103504.47;5095974;28;20043;-36
2022/01/22 11:56:53;;;;;;;23.98;14.75;;;;;;;6.00;100.00;103507.72;5094806;28;20043;-37
2022/01/22 11:59:31;;;;;;;21.67;14.13;;;;;;;6.02;100.00;103512.97;5095281;28;20024;-37
2022/01/22 12:02:02;;;;;;;25.05;14.57;;;;;;;6.01;100.00;103505.91;5094960;28;20028;-36
2022/01/22 12:04:40;;;;;;;25.90;15.18;;;;;;;6.03;100.00;103503.94;5095327;28;20494;-37
2022/01/22 12:07:06;;;;;;;22.23;15.32;;;;;;;6.04;100.00;103502.94;5094909;28;20050;-37
2022/01/22 12:09:43;;;;;;;24.00;15.70;;;;;;;5.88;100.00;103469.34;5094512;28;20020;-37
2022/01/22 12:15:20;;;;;;;25.35;16.63;;;;;;;6.01;100.00;103489.78;5094595;28;20042;-36
2022/01/22 12:22:57;;;;;;;26.98;16.80;;;;;;;5.99;100.00;103487.22;5094510;28;20043;-37
2022/01/22 12:25:22;;;;;;;23.40;18.03;;;;;;;6.01;100.00;103500.53;5094031;28;20028;-37
2022/01/22 12:27:54;;;;;;;25.47;16.80;;;;;;;5.99;100.00;103506.03;5094324;28;20039;-37
2022/01/22 12:30:45;;;;;;;27.73;18.42;;;;;;;5.98;100.00;103498.97;5093739;28;20443;-37
2022/01/22 12:33:34;;;;;;;28.77;18.75;;;;;;;5.96;100.00;103506.31;5094835;28;20020;-37
2022/01/22 12:36:02;;;;;;;30.67;17.55;;;;;;;5.96;100.00;103502.78;5094915;28;20031;-37
2022/01/22 12:41:26;;;;;;;28.45;18.85;;;;;;;5.97;100.00;103493.72;5094190;28;20058;-37
2022/01/22 12:44:00;;;;;;;24.45;17.67;;;;;;;5.97;100.00;103496.41;5094189;28;20057;-36
2022/01/22 12:46:26;;;;;;;29.48;19.40;;;;;;;5.98;100.00;103498.13;5094275;28;20021;-36
2022/01/22 12:48:52;;;;;;;27.25;18.77;;;;;;;5.99;100.00;103497.13;5093956;28;20062;-36
2022/01/22 12:51:25;;;;;;;26.00;18.92;;;;;;;5.98;100.00;103500.78;5093854;28;20449;-36
2022/01/22 12:53:51;;;;;;;29.80;19.95;;;;;;;5.99;100.00;103497.97;5094131;28;20081;-36
2022/01/22 12:56:48;;;;;;;31.67;20.33;;;;;;;6.00;100.00;103498.81;5094191;28;20457;-36
2022/01/22 12:59:09;;;;;;;29.17;20.40;;;;;;;5.92;100.00;103486.94;5093719;28;20122;-37
2022/01/22 13:01:38;;;;;;;28.08;20.20;;;;;;;5.94;100.00;103502.91;5093637;28;20051;-37
2022/01/22 13:04:08;;;;;;;27.48;20.15;;;;;;;5.88;100.00;103488.16;5093548;28;20507;-37
2022/01/22 13:06:45;;;;;;;31.58;21.23;;;;;;;6.01;100.00;103503.22;5093646;28;20046;-37